Time;durP1;ratioP1;P1;durP2;ratioP2;P2;SDS_P1;SDS_P2;PMS_P1;PMS_P2;Temp;Humidity;BMP_temperature;BMP_pressure;BME280_temperature;BME280_humidity;BME280_pressure;Samples;Min_cycle;Max_cycle;Signal;HPM_P1;HPM_P2
2021/12/14 00:02:05;;;;;;;18.35;13.43;;;;;;;6.12;84.30;101577.19;5046744;28;20407;-80
2021/12/14 00:04:33;;;;;;;19.03;14.03;;;;;;;6.21;84.12;101581.44;5042925;28;20409;-80
2021/12/14 00:07:02;;;;;;;19.45;13.80;;;;;;;6.26;83.15;101584.38;5047053;28;20429;-80
2021/12/14 00:09:33;;;;;;;19.00;14.13;;;;;;;6.18;84.23;101581.81;5037115;28;20431;-80
2021/12/14 00:12:19;;;;;;;19.92;13.93;;;;;;;6.07;84.25;101588.50;5050810;28;20400;-80
2021/12/14 00:17:19;;;;;;;17.02;13.60;;;;;;;6.11;84.50;101589.81;5037697;28;20513;-80
2021/12/14 00:19:45;;;;;;;18.23;13.77;;;;;;;6.16;83.69;101589.22;5046435;28;20484;-80
2021/12/14 00:22:29;;;;;;;19.70;13.63;;;;;;;6.16;84.25;101597.28;5047174;28;20485;-80
2021/12/14 00:24:56;;;;;;;18.75;13.95;;;;;;;6.11;84.29;101595.19;5046318;28;20397;-80
2021/12/14 00:27:23;;;;;;;16.50;12.80;;;;;;;6.08;84.62;101595.56;5047835;28;20405;-80
2021/12/14 00:29:53;;;;;;;17.58;12.88;;;;;;;6.14;83.79;101602.03;5032577;28;20402;-80
2021/12/14 00:32:22;;;;;;;16.02;13.02;;;;;;;6.24;83.83;101599.91;5038260;28;20395;-80
2021/12/14 00:34:50;;;;;;;18.13;12.88;;;;;;;6.28;83.10;101593.13;5048459;28;20411;-80
2021/12/14 00:37:28;;;;;;;16.90;13.20;;;;;;;6.25;83.58;101590.81;5034303;28;20387;-80
2021/12/14 00:39:56;;;;;;;15.35;12.18;;;;;;;6.31;83.27;101594.59;5044602;28;20399;-80
2021/12/14 00:42:22;;;;;;;17.23;13.15;;;;;;;6.31;83.00;101594.59;5044050;28;20413;-80
2021/12/14 00:44:48;;;;;;;17.10;12.75;;;;;;;6.33;82.93;101590.69;5042854;28;20990;-80
2021/12/14 00:47:14;;;;;;;18.75;13.40;;;;;;;6.36;83.10;101592.16;5035005;28;20408;-80
2021/12/14 00:49:40;;;;;;;17.00;12.15;;;;;;;6.37;82.33;101593.81;5044418;28;20885;-80
2021/12/14 00:52:06;;;;;;;15.45;12.65;;;;;;;6.38;82.29;101601.72;5041040;28;20398;-80
2021/12/14 00:54:32;;;;;;;14.90;11.90;;;;;;;6.38;82.45;101590.97;5036839;28;20906;-80
2021/12/14 00:56:58;;;;;;;17.58;13.02;;;;;;;6.39;82.38;101592.59;5045990;28;20749;-80
2021/12/14 00:59:24;;;;;;;17.98;12.55;;;;;;;6.39;82.90;101598.00;5031883;28;20403;-80
2021/12/14 01:01:54;;;;;;;19.27;12.20;;;;;;;6.37;82.98;101600.03;5037670;28;20418;-80
2021/12/14 01:04:24;;;;;;;14.55;11.60;;;;;;;6.36;82.92;101601.06;5046125;28;20412;-80
2021/12/14 01:06:50;;;;;;;14.98;12.50;;;;;;;6.38;82.73;101598.19;5045481;28;20406;-80
2021/12/14 01:09:22;;;;;;;15.95;11.80;;;;;;;6.37;83.04;101600.03;5045178;28;20742;-80
2021/12/14 01:11:50;;;;;;;13.33;10.63;;;;;;;6.37;82.14;101596.50;5038171;28;20916;-79
2021/12/14 01:14:30;;;;;;;13.68;10.70;;;;;;;6.32;81.91;101607.03;5032925;28;20465;-79
2021/12/14 01:17:12;;;;;;;14.17;10.17;;;;;;;6.26;82.45;101603.22;5032381;28;20401;-80
2021/12/14 01:19:46;;;;;;;13.80;10.32;;;;;;;6.21;82.08;101611.03;5031055;28;20407;-80
2021/12/14 01:22:32;;;;;;;12.00;10.55;;;;;;;6.18;82.17;101604.19;5033214;28;20465;-80
2021/12/14 01:25:08;;;;;;;11.32;9.77;;;;;;;6.16;82.15;101600.81;5037481;28;20382;-80
2021/12/14 01:27:43;;;;;;;13.57;10.10;;;;;;;6.20;82.01;101607.50;5046651;28;20930;-80
2021/12/14 01:30:35;;;;;;;11.48;9.93;;;;;;;6.19;81.69;101608.53;5046132;28;20393;-80
2021/12/14 01:33:06;;;;;;;11.25;9.15;;;;;;;6.12;82.25;101598.72;5042927;28;20397;-80
2021/12/14 01:35:37;;;;;;;11.23;9.20;;;;;;;6.12;82.08;101596.88;5042757;28;20522;-80
2021/12/14 01:40:58;;;;;;;10.02;8.02;;;;;;;6.03;81.81;101591.75;5037127;28;20929;-80
2021/12/14 01:43:44;;;;;;;8.25;7.18;;;;;;;6.01;81.95;101602.72;5037231;28;20413;-80
2021/12/14 01:46:18;;;;;;;8.45;7.57;;;;;;;5.98;82.05;101595.03;5049038;28;20399;-80
2021/12/14 01:48:44;;;;;;;9.25;7.72;;;;;;;5.98;82.33;101586.13;5043767;28;20421;-80
2021/12/14 01:51:11;;;;;;;7.67;6.87;;;;;;;5.98;82.39;101594.19;5034290;28;20500;-80
2021/12/14 01:53:39;;;;;;;9.05;7.47;;;;;;;5.98;82.39;101591.50;5042081;28;20393;-80
2021/12/14 01:56:08;;;;;;;8.07;7.25;;;;;;;5.97;82.39;101596.03;5041365;28;20877;-80
2021/12/14 01:58:45;;;;;;;9.27;7.60;;;;;;;5.96;82.76;101583.59;5037569;28;20442;-80
2021/12/14 02:01:15;;;;;;;8.05;7.28;;;;;;;5.99;82.90;101595.88;5043865;28;20455;-80
2021/12/14 02:03:48;;;;;;;8.75;7.20;;;;;;;6.02;82.80;101592.78;5050208;28;20869;-80
2021/12/14 02:06:19;;;;;;;7.68;6.88;;;;;;;6.07;82.51;101596.59;5037198;28;20754;-80
2021/12/14 02:08:44;;;;;;;9.02;7.40;;;;;;;6.07;83.26;101593.88;5032169;28;20395;-80
2021/12/14 02:11:11;;;;;;;7.13;6.43;;;;;;;6.09;82.82;101591.84;5042360;28;20393;-80
2021/12/14 02:13:43;;;;;;;9.45;6.20;;;;;;;6.11;82.56;101594.34;5046491;28;20401;-80
2021/12/14 02:16:11;;;;;;;7.03;6.35;;;;;;;6.10;82.82;101588.13;5037538;28;20409;-79
2021/12/14 02:18:37;;;;;;;8.30;6.70;;;;;;;6.11;82.92;101600.56;5041670;28;20451;-79
2021/12/14 02:21:09;;;;;;;7.73;6.70;;;;;;;6.10;82.71;101598.06;5036271;28;20786;-80
2021/12/14 02:23:40;;;;;;;7.67;6.87;;;;;;;6.09;82.53;101599.09;5037784;28;20408;-79
2021/12/14 02:26:09;;;;;;;7.38;6.15;;;;;;;6.10;81.96;101595.38;5040641;28;20419;-79
2021/12/14 02:28:35;;;;;;;7.68;6.95;;;;;;;6.11;81.55;101591.66;5041807;28;20448;-79
2021/12/14 02:31:03;;;;;;;9.25;7.68;;;;;;;6.07;82.09;101593.88;5032727;28;20407;-80
2021/12/14 02:33:33;;;;;;;9.55;8.13;;;;;;;6.08;82.40;101590.19;5035767;28;20403;-80
2021/12/14 02:36:01;;;;;;;9.93;8.90;;;;;;;6.06;82.42;101589.53;5048351;28;20424;-80
2021/12/14 02:38:27;;;;;;;15.57;11.00;;;;;;;6.06;82.61;101589.53;5053865;28;20412;-80
2021/12/14 02:40:58;;;;;;;14.02;11.52;;;;;;;6.09;83.17;101593.72;5050353;28;20421;-80
2021/12/14 02:43:35;;;;;;;13.80;12.35;;;;;;;6.12;83.12;101582.56;5035894;28;20485;-80
2021/12/14 02:46:23;;;;;;;14.80;11.65;;;;;;;6.09;83.11;101581.06;5043096;28;20398;-80
2021/12/14 02:48:52;;;;;;;14.63;12.32;;;;;;;6.09;83.17;101572.19;5052162;28;20401;-79
2021/12/14 02:51:20;;;;;;;17.55;14.27;;;;;;;6.10;83.21;101580.06;5037027;28;20882;-80
2021/12/14 02:53:49;;;;;;;15.80;14.13;;;;;;;6.09;83.36;101583.75;5037595;28;20487;-80
2021/12/14 02:56:18;;;;;;;21.63;15.20;;;;;;;6.08;83.86;101586.66;5046703;28;20509;-80
2021/12/14 02:58:47;;;;;;;18.73;16.10;;;;;;;6.05;84.00;101589.72;5037508;28;20395;-80
2021/12/14 03:01:16;;;;;;;22.02;16.35;;;;;;;6.06;83.87;101588.72;5049179;28;20456;-79
2021/12/14 03:03:43;;;;;;;19.55;16.77;;;;;;;6.09;83.72;101599.91;5033784;28;20410;-79
2021/12/14 03:06:10;;;;;;;18.55;16.55;;;;;;;6.11;83.59;101611.34;5046167;28;20888;-80
2021/12/14 03:08:44;;;;;;;19.25;15.65;;;;;;;6.03;84.53;101608.72;5037662;28;20399;-80
2021/12/14 03:11:12;;;;;;;19.05;15.77;;;;;;;5.91;85.27;101614.78;5047965;28;20452;-80
2021/12/14 03:13:44;;;;;;;18.55;16.25;;;;;;;5.90;85.46;101613.09;5044268;28;20890;-80
2021/12/14 03:16:21;;;;;;;22.17;17.77;;;;;;;5.82;85.54;101622.09;5039011;28;20423;-80
2021/12/14 03:18:50;;;;;;;22.33;18.10;;;;;;;5.83;85.86;101633.69;5047964;28;20414;-80
2021/12/14 03:21:31;;;;;;;25.95;19.35;;;;;;;5.90;85.61;101627.41;5034377;28;20395;-80
2021/12/14 03:24:06;;;;;;;24.65;19.30;;;;;;;5.89;85.95;101633.81;5039644;28;20391;-80
2021/12/14 03:26:34;;;;;;;26.83;20.58;;;;;;;5.90;86.04;101635.47;5034062;28;20410;-80
2021/12/14 03:29:07;;;;;;;27.83;20.88;;;;;;;5.86;85.95;101627.97;5036005;28;20757;-80
2021/12/14 03:31:36;;;;;;;28.73;20.67;;;;;;;5.86;86.29;101617.22;5030841;28;20445;-80
2021/12/14 03:34:11;;;;;;;29.38;21.73;;;;;;;5.95;86.11;101597.25;5050406;28;20402;-80
2021/12/14 03:36:44;;;;;;;35.47;23.93;;;;;;;5.97;85.33;101587.13;5035083;28;20424;-79
2021/12/14 03:39:21;;;;;;;36.85;26.52;;;;;;;5.95;85.47;101581.94;5043437;28;20397;-80
2021/12/14 03:41:54;;;;;;;33.20;24.27;;;;;;;5.99;85.32;101588.63;5048124;28;20418;-80
2021/12/14 03:44:27;;;;;;;31.30;23.65;;;;;;;6.02;85.07;101592.78;5044179;28;20411;-80
2021/12/14 03:47:01;;;;;;;32.08;23.65;;;;;;;6.03;85.66;101603.34;5034507;28;20773;-80
2021/12/14 03:49:41;;;;;;;33.35;22.75;;;;;;;5.92;85.57;101619.16;5037449;28;20402;-80
2021/12/14 03:52:12;;;;;;;34.75;22.67;;;;;;;5.86;85.88;101614.53;5052649;28;20487;-80
2021/12/14 03:54:39;;;;;;;31.63;22.87;;;;;;;5.80;86.35;101607.97;5049305;28;20405;-80
2021/12/14 03:57:05;;;;;;;37.05;23.88;;;;;;;5.85;86.53;101596.66;5037375;28;20406;-79
2021/12/14 03:59:32;;;;;;;33.85;23.40;;;;;;;5.96;85.77;101602.44;5040118;28;20387;-80
2021/12/14 04:02:01;;;;;;;35.83;23.10;;;;;;;5.93;86.31;101586.66;5032827;28;20402;-80
2021/12/14 04:04:43;;;;;;;38.65;24.98;;;;;;;5.93;85.47;101583.97;5032900;28;20403;-80
2021/12/14 04:07:12;;;;;;;36.58;25.15;;;;;;;5.91;85.53;101586.03;5045806;28;20446;-80
2021/12/14 04:09:38;;;;;;;39.47;25.50;;;;;;;5.84;85.56;101581.53;5041525;28;20393;-80
2021/12/14 04:12:10;;;;;;;38.03;24.33;;;;;;;5.84;86.03;101574.31;5033233;28;20434;-80
2021/12/14 04:14:44;;;;;;;41.33;25.10;;;;;;;5.89;85.41;101569.25;5032875;28;20426;-80
2021/12/14 04:17:11;;;;;;;43.25;26.90;;;;;;;5.89;85.44;101561.19;5046384;28;20408;-80
2021/12/14 04:19:39;;;;;;;42.58;27.40;;;;;;;5.95;85.74;101570.34;5035902;28;20928;-80
2021/12/14 04:22:09;;;;;;;40.97;26.17;;;;;;;5.94;86.17;101574.88;5046258;28;20413;-80
2021/12/14 04:24:37;;;;;;;45.53;27.70;;;;;;;5.94;85.27;101576.75;5043864;28;20398;-80
2021/12/14 04:27:11;;;;;;;74.43;41.03;;;;;;;5.90;85.09;101581.66;5047885;28;20404;-80
2021/12/14 04:29:37;;;;;;;55.33;30.13;;;;;;;5.86;85.96;101588.44;5033415;28;20399;-80
2021/12/14 04:32:04;;;;;;;59.30;28.83;;;;;;;5.87;85.77;101581.19;5032538;28;20434;-80
2021/12/14 04:34:31;;;;;;;45.63;28.10;;;;;;;5.87;85.99;101584.72;5043638;28;20416;-80
2021/12/14 04:36:57;;;;;;;51.38;27.98;;;;;;;5.89;85.88;101584.56;5035596;28;20755;-80
2021/12/14 04:53:20;;;;;;;54.67;31.20;;;;;;;5.82;85.48;101543.25;5027510;28;20413;-80
2021/12/14 04:55:46;;;;;;;58.80;32.25;;;;;;;5.82;85.34;101545.94;5028264;28;20421;-80
2021/12/14 04:58:13;;;;;;;66.20;34.43;;;;;;;5.86;86.13;101555.34;5052379;28;20415;-79
2021/12/14 05:00:47;;;;;;;53.97;31.67;;;;;;;5.82;86.43;101564.75;5051292;28;20425;-80
2021/12/14 05:03:26;;;;;;;62.40;35.63;;;;;;;5.69;86.43;101558.19;5037890;28;20494;-80
2021/12/14 05:06:13;;;;;;;59.85;34.63;;;;;;;5.71;86.89;101545.38;5029798;28;20414;-80
2021/12/14 05:11:15;;;;;;;65.70;35.15;;;;;;;5.72;86.17;101547.06;5038227;28;20403;-80
2021/12/14 05:13:53;;;;;;;65.20;35.83;;;;;;;5.63;86.64;101545.47;5029668;28;20411;-80
2021/12/14 05:16:24;;;;;;;81.18;35.88;;;;;;;5.71;87.27;101537.31;5047588;28;20424;-80
2021/12/14 05:18:54;;;;;;;89.10;36.10;;;;;;;5.76;86.52;101548.34;5047674;28;20417;-80
2021/12/14 05:21:31;;;;;;;86.13;35.20;;;;;;;5.81;86.83;101552.31;5037795;28;20401;-80
2021/12/14 05:23:57;;;;;;;91.33;37.43;;;;;;;5.82;86.11;101546.78;5040330;28;20385;-80
2021/12/14 05:26:23;;;;;;;93.47;36.85;;;;;;;5.82;86.33;101538.69;5031851;28;20431;-80
2021/12/14 05:28:49;;;;;;;95.93;37.73;;;;;;;5.79;86.76;101538.25;5044911;28;20433;-80
2021/12/14 05:31:14;;;;;;;106.60;37.60;;;;;;;5.76;86.98;101534.88;5039553;28;20413;-80
2021/12/14 05:33:40;;;;;;;103.33;38.53;;;;;;;5.77;86.45;101533.03;5036971;28;20410;-80
2021/12/14 05:36:09;;;;;;;108.57;37.53;;;;;;;5.76;86.76;101534.88;5035893;28;20504;-81
2021/12/14 05:39:00;;;;;;;107.05;38.70;;;;;;;5.73;87.23;101542.50;5041489;28;20902;-80
2021/12/14 05:44:23;;;;;;;103.40;39.45;;;;;;;5.70;87.81;101551.78;5038461;28;20410;-80
2021/12/14 05:46:52;;;;;;;93.40;38.45;;;;;;;5.73;87.15;101555.94;5039916;28;20406;-80
2021/12/14 05:49:21;;;;;;;94.93;40.65;;;;;;;5.60;87.48;101564.66;5028864;28;20411;-80
2021/12/14 05:51:48;;;;;;;100.88;41.50;;;;;;;5.60;87.79;101547.69;5037292;28;20396;-81
2021/12/14 05:54:23;;;;;;;91.90;37.60;;;;;;;5.66;87.52;101555.03;5043075;28;20403;-81
2021/12/14 05:56:50;;;;;;;94.60;37.72;;;;;;;5.72;87.93;101549.75;5037866;28;20430;-80
2021/12/14 05:59:24;;;;;;;99.22;38.63;;;;;;;5.74;86.90;101534.25;5033671;28;20434;-79
2021/12/14 06:01:50;;;;;;;111.27;41.87;;;;;;;5.64;87.38;101528.31;5036812;28;20536;-79
2021/12/14 06:04:16;;;;;;;94.97;39.58;;;;;;;5.68;87.74;101535.00;5039239;28;20402;-80
2021/12/14 06:06:51;;;;;;;103.90;37.30;;;;;;;5.71;87.67;101533.78;5031021;28;20927;-78
2021/12/14 06:09:23;;;;;;;92.93;35.47;;;;;;;5.69;87.03;101543.91;5034095;28;20395;-79
2021/12/14 06:11:52;;;;;;;86.15;34.95;;;;;;;5.66;87.57;101534.34;5053494;28;20389;-79
2021/12/14 06:14:24;;;;;;;90.82;35.83;;;;;;;5.68;87.34;101536.84;5046677;28;20537;-78
2021/12/14 06:16:54;;;;;;;85.20;34.30;;;;;;;5.71;87.31;101529.25;5032652;28;20878;-78
2021/12/14 06:19:24;;;;;;;81.40;34.28;;;;;;;5.51;87.98;101525.44;5035607;28;20406;-79
2021/12/14 06:22:02;;;;;;;87.30;33.03;;;;;;;5.52;88.28;101527.13;5036601;28;20442;-79
2021/12/14 06:24:31;;;;;;;89.93;34.08;;;;;;;5.61;87.81;101530.53;5038015;28;20407;-79
2021/12/14 06:27:00;;;;;;;87.75;34.17;;;;;;;5.66;87.14;101531.66;5044071;28;20963;-79
2021/12/14 06:29:31;;;;;;;84.93;33.85;;;;;;;5.67;87.83;101519.88;5047399;28;20410;-79
2021/12/14 06:32:04;;;;;;;80.45;31.75;;;;;;;5.63;87.18;101510.50;5042114;28;20419;-80
2021/12/14 06:34:30;;;;;;;98.85;33.05;;;;;;;5.64;87.43;101498.75;5040666;28;20415;-80
2021/12/14 06:37:26;;;;;;;81.43;31.50;;;;;;;5.57;87.57;101487.06;5046760;28;20413;-80
2021/12/14 06:40:18;;;;;;;84.07;32.40;;;;;;;5.56;87.88;101488.09;5035069;28;20394;-80
2021/12/14 06:42:51;;;;;;;69.90;30.23;;;;;;;5.58;87.73;101482.53;5041418;28;20415;-79
2021/12/14 06:45:42;;;;;;;67.60;29.85;;;;;;;5.56;87.92;101489.97;5033551;28;20399;-79
2021/12/14 06:48:20;;;;;;;73.57;30.30;;;;;;;5.52;88.05;101499.41;5045314;28;22319;-79
2021/12/14 06:50:50;;;;;;;58.50;26.17;;;;;;;5.53;88.26;101499.19;5036445;28;20456;-80
2021/12/14 06:53:17;;;;;;;50.08;24.67;;;;;;;5.51;88.22;101514.69;5048500;28;20907;-79
2021/12/14 06:55:44;;;;;;;54.22;25.17;;;;;;;5.41;88.33;101508.75;5050072;28;20454;-79
2021/12/14 06:58:14;;;;;;;61.15;28.33;;;;;;;5.44;88.42;101532.59;5047513;28;20488;-80
2021/12/14 07:00:50;;;;;;;43.92;21.70;;;;;;;5.34;88.85;101536.56;5037973;28;20394;-80
2021/12/14 07:03:16;;;;;;;37.85;17.90;;;;;;;5.21;88.39;101539.91;5052015;28;20790;-81
2021/12/14 07:05:46;;;;;;;39.20;17.73;;;;;;;4.97;89.33;101540.16;5050519;28;20393;-81
2021/12/14 07:08:15;;;;;;;32.25;17.63;;;;;;;5.14;89.15;101547.84;5038796;28;20989;-81
2021/12/14 07:10:44;;;;;;;35.78;18.60;;;;;;;5.22;88.45;101542.41;5032910;28;20407;-80
2021/12/14 07:13:12;;;;;;;35.17;18.20;;;;;;;5.19;88.54;101537.41;5040321;28;20928;-79
2021/12/14 07:15:38;;;;;;;32.88;18.20;;;;;;;5.23;88.55;101540.56;5060373;28;20461;-80
2021/12/14 07:18:05;;;;;;;33.67;19.23;;;;;;;5.38;88.14;101545.94;5048116;28;20436;-79
2021/12/14 07:20:35;;;;;;;33.95;19.45;;;;;;;5.44;86.76;101550.56;5061590;28;20427;-79
2021/12/14 07:23:16;;;;;;;33.33;20.05;;;;;;;5.31;87.62;101543.16;5043957;28;20444;-80
2021/12/14 07:25:42;;;;;;;32.55;19.95;;;;;;;5.35;87.50;101549.84;5033857;28;20886;-79
2021/12/14 07:28:14;;;;;;;36.38;20.83;;;;;;;5.39;87.63;101559.22;5047174;28;20887;-79
2021/12/14 07:30:45;;;;;;;38.47;20.75;;;;;;;5.37;87.54;101563.09;5034323;28;20403;-79
2021/12/14 07:33:17;;;;;;;39.97;22.25;;;;;;;5.39;87.03;101561.06;5054054;28;20744;-79
2021/12/14 07:35:56;;;;;;;42.83;22.20;;;;;;;5.39;86.46;101566.44;5032739;28;20410;-78
2021/12/14 07:38:41;;;;;;;41.40;22.40;;;;;;;5.37;87.37;101568.47;5033340;28;20408;-79
2021/12/14 07:41:25;;;;;;;54.17;25.00;;;;;;;5.33;86.89;101578.75;5040610;28;20410;-78
2021/12/14 07:44:14;;;;;;;50.38;25.88;;;;;;;5.34;87.44;101582.25;5047806;28;20407;-79
2021/12/14 07:46:52;;;;;;;53.33;25.73;;;;;;;5.42;87.28;101580.34;5034150;28;20469;-79
2021/12/14 07:49:30;;;;;;;60.65;27.65;;;;;;;5.40;86.79;101593.09;5037022;28;20776;-79
2021/12/14 07:52:14;;;;;;;56.90;25.67;;;;;;;5.29;87.32;101611.56;5048927;28;20393;-79
2021/12/14 07:54:44;;;;;;;54.63;28.13;;;;;;;5.22;87.88;101627.56;5033303;28;20762;-79
2021/12/14 07:57:14;;;;;;;55.53;27.17;;;;;;;5.30;88.27;101614.06;5046295;28;20424;-79
2021/12/14 07:59:58;;;;;;;55.45;27.80;;;;;;;5.35;87.63;101621.56;5035708;28;20403;-79
2021/12/14 08:02:28;;;;;;;56.80;26.98;;;;;;;5.32;88.08;101614.72;5034741;28;20406;-79
2021/12/14 08:05:25;;;;;;;55.75;26.00;;;;;;;5.35;86.69;101594.69;5037407;28;20490;-79
2021/12/14 08:07:59;;;;;;;57.97;28.10;;;;;;;5.34;86.96;101588.47;5038527;28;20840;-79
2021/12/14 08:10:32;;;;;;;64.50;28.08;;;;;;;5.38;87.01;101575.50;5037510;28;20449;-79
2021/12/14 08:13:12;;;;;;;50.83;26.92;;;;;;;5.33;87.23;101577.91;5046281;28;20416;-79
2021/12/14 08:15:39;;;;;;;52.15;25.85;;;;;;;5.44;87.44;101596.28;5048331;28;20443;-79
2021/12/14 08:18:07;;;;;;;55.40;26.80;;;;;;;5.52;87.02;101591.66;5033029;28;20514;-79
2021/12/14 08:20:35;;;;;;;48.80;25.05;;;;;;;5.54;86.47;101596.84;5033206;28;20955;-79
2021/12/14 08:23:14;;;;;;;48.92;25.80;;;;;;;5.58;86.86;101587.38;5043175;28;20805;-79
2021/12/14 08:25:41;;;;;;;59.70;26.52;;;;;;;5.52;85.96;101583.59;5037353;28;20871;-79
2021/12/14 08:28:07;;;;;;;56.97;26.25;;;;;;;5.49;86.34;101608.16;5047944;28;20392;-79
2021/12/14 08:30:35;;;;;;;55.90;26.02;;;;;;;5.32;87.79;101595.06;5032267;28;20813;-79
2021/12/14 08:33:03;;;;;;;59.55;27.50;;;;;;;5.43;87.07;101581.19;5031854;28;20395;-79
2021/12/14 08:35:28;;;;;;;62.78;26.65;;;;;;;5.44;86.71;101597.09;5047857;28;20419;-78
2021/12/14 08:37:59;;;;;;;55.42;26.63;;;;;;;5.47;87.06;101607.50;5040750;28;20443;-79
2021/12/14 08:40:31;;;;;;;55.35;27.48;;;;;;;5.47;86.92;101585.97;5034962;28;20419;-79
2021/12/14 08:43:13;;;;;;;56.97;27.00;;;;;;;5.48;87.05;101579.59;5042183;28;20459;-79
2021/12/14 08:45:49;;;;;;;56.00;27.53;;;;;;;5.40;86.80;101587.72;5031340;28;20391;-79
2021/12/14 08:48:29;;;;;;;52.53;27.10;;;;;;;5.50;86.80;101593.69;5032123;28;20782;-79
2021/12/14 08:51:00;;;;;;;56.60;28.50;;;;;;;5.53;86.88;101600.56;5033005;28;20458;-79
2021/12/14 08:53:33;;;;;;;53.58;28.30;;;;;;;5.61;86.60;101611.22;5043114;28;20893;-79
2021/12/14 08:56:03;;;;;;;52.50;29.35;;;;;;;5.59;86.26;101607.88;5030771;28;20411;-79
2021/12/14 08:58:29;;;;;;;47.47;27.63;;;;;;;5.59;86.66;101613.28;5043483;28;20395;-79
2021/12/14 09:00:59;;;;;;;54.15;28.38;;;;;;;5.59;85.67;101610.59;5032243;28;20396;-79
2021/12/14 09:03:33;;;;;;;55.15;30.80;;;;;;;5.56;86.20;101609.09;5029636;28;20407;-79
2021/12/14 09:06:08;;;;;;;56.33;28.15;;;;;;;5.60;86.40;101613.06;5044624;28;20481;-79
2021/12/14 09:08:34;;;;;;;56.53;30.80;;;;;;;5.43;86.51;101608.91;5033842;28;20722;-79
2021/12/14 09:11:01;;;;;;;59.03;31.08;;;;;;;5.49;86.96;101608.16;5037343;28;20389;-79
2021/12/14 09:13:27;;;;;;;51.08;30.10;;;;;;;5.54;86.95;101619.19;5040366;28;20433;-79
2021/12/14 09:16:01;;;;;;;52.60;29.77;;;;;;;5.66;85.90;101624.97;5054351;28;20448;-79
2021/12/14 09:18:29;;;;;;;55.30;29.43;;;;;;;5.71;86.15;101622.53;5041534;28;20406;-79
2021/12/14 09:21:03;;;;;;;64.30;34.22;;;;;;;5.67;85.04;101616.69;5043487;28;20437;-79
2021/12/14 09:23:35;;;;;;;48.97;28.88;;;;;;;5.70;85.83;101621.69;5037007;28;20433;-79
2021/12/14 09:26:03;;;;;;;46.97;27.88;;;;;;;5.79;85.42;101624.31;5031549;28;20394;-79
2021/12/14 09:28:30;;;;;;;51.17;29.83;;;;;;;5.71;85.43;101626.06;5035368;28;20443;-79
2021/12/14 09:31:00;;;;;;;50.25;30.20;;;;;;;5.50;85.51;101630.50;5050168;28;20400;-79
2021/12/14 09:33:27;;;;;;;50.65;29.92;;;;;;;5.57;85.58;101634.09;5044673;28;20405;-79
2021/12/14 09:35:56;;;;;;;49.03;29.83;;;;;;;5.68;85.51;101639.06;5035151;28;20501;-79
2021/12/14 09:38:31;;;;;;;44.40;27.50;;;;;;;5.65;85.54;101640.25;5035500;28;20385;-79
2021/12/14 09:40:58;;;;;;;38.90;25.58;;;;;;;5.71;85.28;101639.50;5031512;28;20905;-79
2021/12/14 09:43:23;;;;;;;45.97;28.38;;;;;;;5.75;84.31;101629.22;5037465;28;21046;-79
2021/12/14 09:45:52;;;;;;;42.78;27.60;;;;;;;5.76;84.18;101638.97;5047317;28;20458;-79
2021/12/14 09:48:27;;;;;;;43.15;28.13;;;;;;;5.75;84.38;101634.59;5036284;28;20392;-79
2021/12/14 09:50:53;;;;;;;43.05;28.27;;;;;;;5.79;83.94;101632.38;5041269;28;20387;-79
2021/12/14 09:53:22;;;;;;;43.10;27.52;;;;;;;5.67;84.32;101634.69;5045092;28;20759;-79
2021/12/14 09:55:50;;;;;;;41.58;27.48;;;;;;;5.73;84.80;101642.00;5034593;28;20419;-79
2021/12/14 09:58:29;;;;;;;40.67;27.23;;;;;;;5.83;84.12;101634.50;5038568;28;20409;-79
2021/12/14 10:01:23;;;;;;;42.08;27.67;;;;;;;5.85;83.59;101637.84;5048785;28;20915;-79
2021/12/14 10:03:52;;;;;;;38.70;25.65;;;;;;;5.71;84.30;101639.50;5043790;28;20454;-79
2021/12/14 10:06:24;;;;;;;41.20;26.08;;;;;;;5.86;83.26;101638.72;5030677;28;20425;-79
2021/12/14 10:08:56;;;;;;;42.80;28.15;;;;;;;5.91;83.81;101641.69;5031720;28;20418;-79
2021/12/14 10:11:42;;;;;;;44.35;27.80;;;;;;;5.98;83.52;101640.75;5033679;28;20830;-79
2021/12/14 10:14:08;;;;;;;41.30;26.73;;;;;;;5.80;84.30;101636.72;5030013;28;20391;-79
2021/12/14 10:16:34;;;;;;;43.78;27.73;;;;;;;5.80;84.55;101634.88;5041911;28;20765;-79
2021/12/14 10:19:14;;;;;;;41.07;26.77;;;;;;;5.81;84.73;101636.56;5036189;28;20406;-79
2021/12/14 10:21:47;;;;;;;42.80;27.58;;;;;;;5.89;84.25;101636.50;5035545;28;20397;-79
2021/12/14 10:24:12;;;;;;;43.87;28.60;;;;;;;6.07;84.09;101628.03;5033195;28;20411;-79
2021/12/14 10:26:41;;;;;;;44.50;27.53;;;;;;;6.17;83.14;101631.28;5056102;28;20461;-79
2021/12/14 10:29:08;;;;;;;41.67;28.13;;;;;;;6.20;82.79;101626.34;5035724;28;20830;-79
2021/12/14 10:31:41;;;;;;;47.27;29.00;;;;;;;5.94;83.06;101631.38;5047133;28;20421;-80
2021/12/14 10:34:18;;;;;;;45.33;28.83;;;;;;;6.01;83.16;101628.78;5039263;28;20447;-79
2021/12/14 10:36:52;;;;;;;43.13;28.38;;;;;;;6.18;81.80;101614.13;5078011;28;20420;-79
2021/12/14 10:39:35;;;;;;;47.35;30.80;;;;;;;6.24;82.20;101613.34;5031221;28;20413;-79
2021/12/14 10:44:56;;;;;;;50.28;31.27;;;;;;;5.99;83.71;101612.00;5032776;28;20797;-79
2021/12/14 10:47:25;;;;;;;48.67;29.77;;;;;;;6.05;83.33;101611.25;5037662;28;20527;-79
2021/12/14 10:49:52;;;;;;;48.55;29.98;;;;;;;6.25;83.30;101607.78;5058058;28;20409;-79
2021/12/14 10:52:22;;;;;;;45.90;29.38;;;;;;;6.30;81.69;101606.38;5043290;28;20945;-79
2021/12/14 10:54:52;;;;;;;48.67;30.17;;;;;;;6.19;82.34;101602.34;5043805;28;21189;-79
2021/12/14 10:57:26;;;;;;;50.83;33.28;;;;;;;6.10;83.00;101611.50;5044615;28;20908;-79
2021/12/14 10:59:54;;;;;;;56.33;34.97;;;;;;;6.20;83.13;101612.06;5049164;28;20409;-79
2021/12/14 11:02:22;;;;;;;42.53;26.73;;;;;;;6.37;82.14;101615.38;5049322;28;20756;-79
2021/12/14 11:04:55;;;;;;;40.72;27.75;;;;;;;6.54;80.96;101608.72;5048956;28;20921;-80
2021/12/14 11:07:40;;;;;;;41.38;27.25;;;;;;;6.53;81.46;101605.19;5048788;28;21113;-79
2021/12/14 11:10:13;;;;;;;42.63;27.85;;;;;;;6.52;80.19;101605.41;5040219;28;20402;-80
2021/12/14 11:12:43;;;;;;;37.40;26.75;;;;;;;6.54;80.44;101600.66;5052353;28;21055;-79
2021/12/14 11:15:21;;;;;;;38.88;26.55;;;;;;;6.56;79.86;101612.06;5046102;28;20435;-79
2021/12/14 11:18:11;;;;;;;42.50;27.92;;;;;;;6.45;79.77;101617.97;5040221;28;20762;-80
2021/12/14 11:20:42;;;;;;;43.42;27.98;;;;;;;6.22;80.92;101623.50;5047630;28;21018;-80
2021/12/14 11:23:16;;;;;;;37.42;26.27;;;;;;;6.38;80.80;101620.56;5044631;28;20755;-80
2021/12/14 11:25:52;;;;;;;40.17;26.87;;;;;;;6.47;79.77;101621.28;5041263;28;20539;-80
2021/12/14 11:28:36;;;;;;;44.80;28.70;;;;;;;6.24;80.92;101629.50;5045144;28;20446;-80
2021/12/14 11:31:12;;;;;;;40.03;27.88;;;;;;;6.38;80.54;101625.97;5043973;28;20393;-80
2021/12/14 11:33:42;;;;;;;40.28;27.65;;;;;;;6.39;80.32;101630.31;5038818;28;20775;-80
2021/12/14 11:36:28;;;;;;;41.88;27.52;;;;;;;6.38;80.45;101636.72;5054832;28;20447;-80
2021/12/14 11:39:11;;;;;;;46.00;27.98;;;;;;;6.23;80.50;101631.34;5035919;28;20399;-79
2021/12/14 11:41:42;;;;;;;40.28;27.67;;;;;;;5.97;81.73;101638.25;5043689;28;20424;-80
2021/12/14 11:44:32;;;;;;;43.00;28.92;;;;;;;5.97;82.56;101635.56;5037806;28;20409;-80
2021/12/14 11:50:12;;;;;;;43.90;29.23;;;;;;;6.21;81.37;101624.50;5039520;28;20405;-79
2021/12/14 11:52:52;;;;;;;38.78;27.35;;;;;;;6.38;81.30;101617.03;5067002;28;20402;-79
2021/12/14 11:55:28;;;;;;;37.95;27.55;;;;;;;6.29;81.34;101634.34;5036051;28;20411;-79
2021/12/14 11:58:16;;;;;;;39.40;27.53;;;;;;;6.52;80.10;101635.84;5039323;28;20450;-79
2021/12/14 12:00:51;;;;;;;38.92;26.67;;;;;;;6.53;80.06;101633.97;5037147;28;20407;-80
2021/12/14 12:03:23;;;;;;;37.63;25.98;;;;;;;6.35;80.69;101625.50;5046557;28;20395;-80
2021/12/14 12:06:05;;;;;;;42.20;28.35;;;;;;;6.31;80.93;101616.97;5040344;28;20385;-80
2021/12/14 12:11:19;;;;;;;40.38;28.80;;;;;;;6.56;80.32;101612.91;5044518;28;20797;-79
2021/12/14 12:13:46;;;;;;;42.95;29.15;;;;;;;6.64;79.02;101618.19;5039022;28;20799;-79
2021/12/14 12:16:22;;;;;;;46.97;29.55;;;;;;;6.66;79.13;101620.66;5032654;28;20419;-80